Time;durP1;ratioP1;P1;durP2;ratioP2;P2;SDS_P1;SDS_P2;PMS_P1;PMS_P2;Temp;Humidity;BMP_temperature;BMP_pressure;BME280_temperature;BME280_humidity;BME280_pressure;Samples;Min_cycle;Max_cycle;Signal;HPM_P1;HPM_P2
2022/08/31 00:04:48;;;;;;;0.50;0.30;;;18.30;99.90;;;;;;5073180;28;20435;-80
2022/08/31 00:07:15;;;;;;;0.50;0.30;;;18.20;99.90;;;;;;5081975;28;20451;-81
2022/08/31 00:09:42;;;;;;;1.00;0.90;;;18.20;99.90;;;;;;5093350;28;20443;-80
2022/08/31 00:12:09;;;;;;;0.50;0.30;;;18.20;99.90;;;;;;5093449;28;20534;-82
2022/08/31 00:14:37;;;;;;;0.50;0.40;;;18.20;99.90;;;;;;5092684;28;20488;-82
2022/08/31 00:17:04;;;;;;;0.50;0.40;;;18.20;99.90;;;;;;5094038;28;20474;-80
2022/08/31 00:19:31;;;;;;;0.50;0.37;;;18.20;99.90;;;;;;5092434;28;20928;-80
2022/08/31 00:21:58;;;;;;;0.50;0.30;;;18.20;99.90;;;;;;5091983;28;20502;-78
2022/08/31 00:24:25;;;;;;;0.50;0.30;;;18.10;99.90;;;;;;5091291;28;20484;-80
2022/08/31 00:26:52;;;;;;;0.50;0.33;;;18.10;99.90;;;;;;5093418;28;20463;-81
2022/08/31 00:29:18;;;;;;;0.50;0.30;;;18.00;99.90;;;;;;5092089;28;20425;-80
2022/08/31 00:31:47;;;;;;;0.50;0.30;;;18.10;99.90;;;;;;5080633;28;21028;-80
2022/08/31 00:34:13;;;;;;;0.50;0.40;;;18.10;99.90;;;;;;5079862;28;21321;-79
2022/08/31 00:36:40;;;;;;;0.50;0.30;;;18.20;99.90;;;;;;5078592;28;20439;-80
2022/08/31 00:39:07;;;;;;;0.50;0.40;;;18.20;99.90;;;;;;5073362;28;20432;-79
2022/08/31 00:41:36;;;;;;;0.50;0.40;;;18.30;99.90;;;;;;5072608;28;20450;-78
2022/08/31 00:44:06;;;;;;;0.50;0.30;;;18.30;99.90;;;;;;5072088;28;20482;-77
2022/08/31 00:46:36;;;;;;;0.50;0.30;;;18.30;99.90;;;;;;5072079;28;20523;-79
2022/08/31 00:49:07;;;;;;;0.50;0.37;;;18.30;99.90;;;;;;5072675;28;20443;-78
2022/08/31 00:51:39;;;;;;;0.50;0.40;;;18.30;99.90;;;;;;5072450;28;20444;-78
2022/08/31 00:54:08;;;;;;;0.50;0.30;;;18.30;99.90;;;;;;5071356;28;20454;-78
2022/08/31 00:56:36;;;;;;;0.50;0.30;;;18.30;99.90;;;;;;5071625;28;20440;-78
2022/08/31 00:59:03;;;;;;;0.50;0.30;;;18.30;99.90;;;;;;5071069;28;20470;-78
2022/08/31 01:01:30;;;;;;;0.50;0.30;;;18.30;99.90;;;;;;5071171;28;20475;-78
2022/08/31 01:03:58;;;;;;;0.50;0.30;;;18.30;99.90;;;;;;5070858;28;21004;-80
2022/08/31 01:06:26;;;;;;;0.50;0.40;;;18.30;99.90;;;;;;5071302;28;20436;-78
2022/08/31 01:08:55;;;;;;;0.50;0.30;;;18.30;99.90;;;;;;5071635;28;20523;-80
2022/08/31 01:11:22;;;;;;;0.50;0.30;;;18.30;99.90;;;;;;5072235;28;20449;-78
2022/08/31 01:13:49;;;;;;;0.50;0.47;;;18.30;99.90;;;;;;5071031;28;20455;-78
2022/08/31 01:16:21;;;;;;;0.50;0.40;;;18.30;99.90;;;;;;5070856;28;20440;-77
2022/08/31 01:18:49;;;;;;;0.50;0.40;;;18.20;99.90;;;;;;5071022;28;20428;-78
2022/08/31 01:21:28;;;;;;;0.50;0.30;;;18.20;99.90;;;;;;5070921;28;20436;-78
2022/08/31 01:23:58;;;;;;;0.50;0.40;;;18.20;99.90;;;;;;5071002;28;20852;-75
2022/08/31 01:26:28;;;;;;;0.50;0.40;;;18.20;99.90;;;;;;5071672;28;20416;-78
2022/08/31 01:28:59;;;;;;;0.50;0.30;;;18.10;99.90;;;;;;5071090;28;20432;-78
2022/08/31 01:31:28;;;;;;;0.50;0.30;;;18.10;99.90;;;;;;5070989;28;20421;-78
2022/08/31 01:33:55;;;;;;;0.50;0.30;;;18.10;99.90;;;;;;5074348;28;20547;-76
2022/08/31 01:36:23;;;;;;;0.90;0.50;;;18.00;99.90;;;;;;5074341;28;20526;-79
2022/08/31 01:38:50;;;;;;;0.50;0.40;;;18.00;99.90;;;;;;5075701;28;20522;-81
2022/08/31 01:41:18;;;;;;;0.50;0.40;;;17.90;99.90;;;;;;5075367;28;20444;-80
2022/08/31 01:43:45;;;;;;;0.50;0.30;;;17.90;99.90;;;;;;5075030;28;20579;-80
2022/08/31 01:46:13;;;;;;;0.60;0.57;;;17.80;99.90;;;;;;5075054;28;20444;-78
2022/08/31 01:48:42;;;;;;;0.50;0.30;;;17.80;99.90;;;;;;5075530;28;20530;-80
2022/08/31 01:51:10;;;;;;;0.50;0.40;;;17.70;99.90;;;;;;5075008;28;20440;-80
2022/08/31 01:53:37;;;;;;;0.50;0.30;;;17.70;99.90;;;;;;5075365;28;20482;-79
2022/08/31 01:56:10;;;;;;;0.50;0.40;;;17.70;99.90;;;;;;5074339;28;20435;-80
2022/08/31 01:58:38;;;;;;;0.50;0.30;;;17.70;99.90;;;;;;5075442;28;20451;-80
2022/08/31 02:01:05;;;;;;;0.50;0.30;;;17.60;99.90;;;;;;5075782;28;20535;-79
2022/08/31 02:03:32;;;;;;;0.50;0.40;;;17.60;99.90;;;;;;5074447;28;21173;-80
2022/08/31 02:05:58;;;;;;;0.50;0.40;;;17.60;99.90;;;;;;5075310;28;20446;-79
2022/08/31 02:08:25;;;;;;;0.50;0.30;;;17.60;99.90;;;;;;5074888;28;20440;-80
2022/08/31 02:10:52;;;;;;;2.77;0.70;;;17.60;99.90;;;;;;5075213;28;20452;-80
2022/08/31 02:13:19;;;;;;;0.60;0.50;;;17.50;99.90;;;;;;5075383;28;20475;-80
2022/08/31 02:15:47;;;;;;;0.50;0.40;;;17.50;99.90;;;;;;5074199;28;20448;-80
2022/08/31 02:18:14;;;;;;;0.50;0.40;;;17.40;99.90;;;;;;5074710;28;20447;-80
2022/08/31 02:20:41;;;;;;;1.50;1.13;;;17.30;99.90;;;;;;5074917;28;20451;-80
2022/08/31 02:23:07;;;;;;;0.50;0.40;;;17.30;99.90;;;;;;5074896;28;20887;-80
2022/08/31 02:25:34;;;;;;;0.50;0.40;;;17.30;99.90;;;;;;5074586;28;20939;-79
2022/08/31 02:28:01;;;;;;;0.50;0.40;;;17.30;99.90;;;;;;5075324;28;20821;-80
2022/08/31 02:30:28;;;;;;;0.50;0.40;;;17.30;99.90;;;;;;5075260;28;20543;-78
2022/08/31 02:32:56;;;;;;;0.50;0.40;;;17.30;99.90;;;;;;5074532;28;20527;-80
2022/08/31 02:35:23;;;;;;;0.70;0.50;;;17.20;99.90;;;;;;5074283;28;20471;-80
2022/08/31 02:37:50;;;;;;;0.50;0.40;;;17.20;99.90;;;;;;5074630;28;20468;-80
2022/08/31 02:40:17;;;;;;;0.90;0.40;;;17.20;99.90;;;;;;5074589;28;20444;-80
2022/08/31 02:42:44;;;;;;;0.50;0.30;;;17.20;99.90;;;;;;5073917;28;20440;-79
2022/08/31 02:45:11;;;;;;;0.60;0.50;;;17.20;99.90;;;;;;5074162;28;20561;-80
2022/08/31 02:47:38;;;;;;;0.50;0.40;;;17.10;99.90;;;;;;5074378;28;20443;-80
2022/08/31 02:50:07;;;;;;;0.67;0.47;;;17.10;99.90;;;;;;5074306;28;20452;-79
2022/08/31 02:52:34;;;;;;;0.50;0.40;;;17.10;99.90;;;;;;5075104;28;20824;-79
2022/08/31 02:55:02;;;;;;;0.50;0.40;;;17.00;99.90;;;;;;5074477;28;20940;-79
2022/08/31 02:57:29;;;;;;;0.50;0.30;;;17.00;99.90;;;;;;5074576;28;20448;-79
2022/08/31 02:59:55;;;;;;;0.50;0.30;;;17.00;99.90;;;;;;5075033;28;20444;-78
2022/08/31 03:02:24;;;;;;;0.50;0.30;;;17.10;99.90;;;;;;5074785;28;20487;-79
2022/08/31 03:04:51;;;;;;;0.50;0.40;;;17.10;99.90;;;;;;5074187;28;20532;-78
2022/08/31 03:07:19;;;;;;;0.50;0.40;;;17.10;99.90;;;;;;5074978;28;20495;-80
2022/08/31 03:09:46;;;;;;;0.50;0.40;;;17.10;99.90;;;;;;5074921;28;20483;-79
2022/08/31 03:12:13;;;;;;;0.50;0.30;;;17.20;99.90;;;;;;5074960;28;20440;-78
2022/08/31 03:14:40;;;;;;;0.50;0.30;;;17.10;99.90;;;;;;5073743;28;20480;-78
2022/08/31 03:17:07;;;;;;;0.50;0.40;;;17.10;99.90;;;;;;5075088;28;20456;-78
2022/08/31 03:19:34;;;;;;;0.50;0.37;;;17.10;99.90;;;;;;5074545;28;20973;-77
2022/08/31 03:22:01;;;;;;;0.50;0.40;;;17.00;99.90;;;;;;5074619;28;20425;-77
2022/08/31 03:24:30;;;;;;;0.50;0.40;;;16.90;99.90;;;;;;5074659;28;20991;-79
2022/08/31 03:26:56;;;;;;;0.50;0.40;;;16.90;99.90;;;;;;5074694;28;20441;-77
2022/08/31 03:29:23;;;;;;;0.50;0.40;;;16.90;99.90;;;;;;5074600;28;20440;-78
2022/08/31 03:31:50;;;;;;;0.50;0.40;;;16.90;99.90;;;;;;5074964;28;20967;-79
2022/08/31 03:34:17;;;;;;;0.50;0.40;;;16.80;99.90;;;;;;5073178;28;20493;-77
2022/08/31 03:36:44;;;;;;;0.50;0.40;;;16.80;99.90;;;;;;5074049;28;20441;-78
2022/08/31 03:39:11;;;;;;;0.50;0.40;;;16.70;99.90;;;;;;5074927;28;20455;-76
2022/08/31 03:41:39;;;;;;;0.50;0.40;;;16.70;99.90;;;;;;5074571;28;20854;-78
2022/08/31 03:44:06;;;;;;;0.50;0.40;;;16.60;99.90;;;;;;5073829;28;20466;-78
2022/08/31 03:46:34;;;;;;;0.50;0.40;;;16.50;99.90;;;;;;5074310;28;20519;-77
2022/08/31 03:49:01;;;;;;;0.50;0.40;;;16.50;99.90;;;;;;5073671;28;20446;-78
2022/08/31 03:51:29;;;;;;;0.50;0.40;;;16.50;99.90;;;;;;5073627;28;20436;-78
2022/08/31 03:53:59;;;;;;;0.50;0.40;;;16.40;99.90;;;;;;5071594;28;20559;-79
2022/08/31 03:56:26;;;;;;;0.50;0.40;;;16.30;99.90;;;;;;5070194;28;20440;-79
2022/08/31 03:58:54;;;;;;;0.50;0.30;;;16.30;99.90;;;;;;5074550;28;20463;-78
2022/08/31 04:01:20;;;;;;;0.50;0.40;;;16.40;99.90;;;;;;5075367;28;20449;-79
2022/08/31 04:03:47;;;;;;;0.50;0.40;;;16.30;99.90;;;;;;5075672;28;20452;-79
2022/08/31 04:06:14;;;;;;;0.50;0.37;;;16.30;99.90;;;;;;5075153;28;20444;-78
2022/08/31 04:08:41;;;;;;;0.50;0.40;;;16.30;99.90;;;;;;5065037;28;20455;-78
2022/08/31 04:11:11;;;;;;;0.50;0.40;;;16.20;99.90;;;;;;5058377;28;20449;-78
2022/08/31 04:13:40;;;;;;;0.50;0.40;;;16.20;99.90;;;;;;5052989;28;21005;-79
2022/08/31 04:16:10;;;;;;;0.50;0.33;;;16.20;99.90;;;;;;5052220;28;20441;-75
2022/08/31 04:18:38;;;;;;;0.50;0.30;;;16.20;99.90;;;;;;5052972;28;20476;-78
2022/08/31 04:21:10;;;;;;;0.50;0.30;;;16.20;99.90;;;;;;5052552;28;20451;-80
2022/08/31 04:23:39;;;;;;;0.50;0.40;;;16.20;99.90;;;;;;5063652;28;21111;-78
2022/08/31 04:26:07;;;;;;;0.50;0.37;;;16.20;99.90;;;;;;5071431;28;20466;-77
2022/08/31 04:28:34;;;;;;;0.50;0.40;;;16.20;99.90;;;;;;5071314;28;20493;-78
2022/08/31 04:31:07;;;;;;;0.50;0.40;;;16.10;99.90;;;;;;5072048;28;20440;-78
2022/08/31 04:33:36;;;;;;;0.50;0.40;;;16.10;99.90;;;;;;5072758;28;20464;-79
2022/08/31 04:36:06;;;;;;;0.50;0.40;;;16.10;99.90;;;;;;5071283;28;20444;-77
2022/08/31 04:38:33;;;;;;;0.53;0.50;;;16.10;99.90;;;;;;5071789;28;20440;-77
2022/08/31 04:41:05;;;;;;;0.50;0.40;;;16.10;99.90;;;;;;5071940;28;20542;-76
2022/08/31 04:43:32;;;;;;;0.50;0.40;;;16.00;99.90;;;;;;5071602;28;20759;-77
2022/08/31 04:45:59;;;;;;;0.50;0.40;;;16.00;99.90;;;;;;5071346;28;20440;-77
2022/08/31 04:48:26;;;;;;;0.50;0.40;;;16.00;99.90;;;;;;5071294;28;20937;-78
2022/08/31 04:51:02;;;;;;;0.50;0.40;;;16.00;99.90;;;;;;5071889;28;20442;-77
2022/08/31 04:53:29;;;;;;;0.50;0.40;;;16.00;99.90;;;;;;5071230;28;20550;-78
2022/08/31 04:55:56;;;;;;;0.50;0.37;;;15.90;99.90;;;;;;5071359;28;20428;-77
2022/08/31 04:58:23;;;;;;;0.50;0.40;;;15.90;99.90;;;;;;5070916;28;20452;-77
2022/08/31 05:00:51;;;;;;;0.50;0.40;;;15.90;99.90;;;;;;5071762;28;20813;-78
2022/08/31 05:03:18;;;;;;;0.50;0.40;;;15.90;99.90;;;;;;5071862;28;20522;-77
2022/08/31 05:05:48;;;;;;;2.30;2.10;;;15.90;99.90;;;;;;5072786;28;20519;-77
2022/08/31 05:08:16;;;;;;;0.60;0.60;;;15.90;99.90;;;;;;5075887;28;20953;-78
2022/08/31 05:10:43;;;;;;;0.50;0.40;;;15.90;99.90;;;;;;5075888;28;20441;-77
2022/08/31 05:13:10;;;;;;;0.50;0.30;;;15.90;99.90;;;;;;5075025;28;20748;-77
2022/08/31 05:15:41;;;;;;;0.50;0.30;;;15.90;99.90;;;;;;5075282;28;20514;-79
2022/08/31 05:18:08;;;;;;;0.50;0.40;;;15.90;99.90;;;;;;5075127;28;20916;-78
2022/08/31 05:20:34;;;;;;;0.50;0.40;;;16.00;99.90;;;;;;5075613;28;20444;-78
2022/08/31 05:23:01;;;;;;;0.50;0.37;;;16.00;99.90;;;;;;5075578;28;20440;-78
2022/08/31 05:25:29;;;;;;;0.50;0.40;;;16.00;99.90;;;;;;5074844;28;20437;-78
2022/08/31 05:27:56;;;;;;;0.50;0.40;;;16.00;99.90;;;;;;5075279;28;20527;-78
2022/08/31 05:30:24;;;;;;;0.60;0.60;;;16.00;99.90;;;;;;5075377;28;20523;-78
2022/08/31 05:32:50;;;;;;;0.70;0.70;;;16.10;99.90;;;;;;5075168;28;20451;-78
2022/08/31 05:35:17;;;;;;;0.50;0.37;;;16.10;99.90;;;;;;5073549;28;20490;-77
2022/08/31 05:37:44;;;;;;;0.50;0.40;;;16.20;99.90;;;;;;5075974;28;20438;-78
2022/08/31 05:40:12;;;;;;;0.50;0.40;;;16.20;99.90;;;;;;5075422;28;20527;-78
2022/08/31 05:42:40;;;;;;;0.50;0.30;;;16.20;99.90;;;;;;5075291;28;20817;-78
2022/08/31 05:45:08;;;;;;;0.50;0.40;;;16.30;99.90;;;;;;5074042;28;20984;-75
2022/08/31 05:47:34;;;;;;;0.50;0.40;;;16.30;99.90;;;;;;5074973;28;20448;-78
2022/08/31 05:50:01;;;;;;;0.50;0.30;;;16.40;99.90;;;;;;5074685;28;20943;-78
2022/08/31 05:52:28;;;;;;;0.50;0.40;;;16.40;99.90;;;;;;5074923;28;20448;-78
2022/08/31 05:54:55;;;;;;;0.50;0.40;;;16.60;99.90;;;;;;5074225;28;20837;-78
2022/08/31 05:57:22;;;;;;;0.50;0.40;;;16.70;99.90;;;;;;5074508;28;20439;-78
2022/08/31 05:59:50;;;;;;;0.50;0.37;;;16.70;99.90;;;;;;5074267;28;20456;-77
2022/08/31 06:02:17;;;;;;;0.50;0.40;;;16.90;99.90;;;;;;5074417;28;20444;-74
2022/08/31 06:04:44;;;;;;;0.50;0.40;;;17.10;99.90;;;;;;5074308;28;20468;-79
2022/08/31 06:07:11;;;;;;;0.50;0.40;;;17.20;99.90;;;;;;5074995;28;20527;-78
2022/08/31 06:09:38;;;;;;;0.50;0.40;;;17.60;99.90;;;;;;5075576;28;20462;-78
2022/08/31 06:12:05;;;;;;;0.50;0.30;;;18.10;99.90;;;;;;5074213;28;20538;-78
2022/08/31 06:14:32;;;;;;;0.50;0.40;;;19.00;99.90;;;;;;5074438;28;20567;-78
2022/08/31 06:17:00;;;;;;;0.50;0.30;;;20.00;99.90;;;;;;5074758;28;20441;-78
2022/08/31 06:19:27;;;;;;;0.50;0.30;;;21.00;99.90;;;;;;5077127;28;20802;-79
2022/08/31 06:21:56;;;;;;;0.50;0.40;;;21.90;99.90;;;;;;5086535;28;20479;-78
2022/08/31 06:24:23;;;;;;;0.50;0.40;;;22.40;99.90;;;;;;5081380;28;20457;-78
2022/08/31 06:26:54;;;;;;;0.50;0.30;;;22.50;99.90;;;;;;5071576;28;20481;-78
2022/08/31 06:29:21;;;;;;;0.50;0.30;;;22.10;99.90;;;;;;5073486;28;20440;-78
2022/08/31 06:31:48;;;;;;;0.50;0.30;;;21.40;99.90;;;;;;5079194;28;20444;-78
2022/08/31 06:34:18;;;;;;;0.50;0.40;;;20.70;99.90;;;;;;5077154;28;20460;-78
2022/08/31 06:36:47;;;;;;;0.50;0.30;;;20.10;99.90;;;;;;5076490;28;20467;-78
2022/08/31 06:39:14;;;;;;;0.93;0.87;;;19.70;99.90;;;;;;5078543;28;20509;-76
2022/08/31 06:41:41;;;;;;;0.50;0.30;;;19.50;99.90;;;;;;5079689;28;20476;-79
2022/08/31 06:44:10;;;;;;;0.50;0.30;;;19.40;99.90;;;;;;5079403;28;20548;-78
2022/08/31 06:46:39;;;;;;;0.60;0.40;;;19.40;99.90;;;;;;5079651;28;20486;-79
2022/08/31 06:49:06;;;;;;;0.50;0.30;;;19.40;99.90;;;;;;5080875;28;20515;-79
2022/08/31 06:51:36;;;;;;;0.50;0.30;;;19.50;99.90;;;;;;5080858;28;20437;-79
2022/08/31 06:54:05;;;;;;;0.50;0.30;;;19.70;99.90;;;;;;5079798;28;20464;-79
2022/08/31 06:56:34;;;;;;;0.50;0.37;;;20.00;99.90;;;;;;5077143;28;20428;-78
2022/08/31 06:59:02;;;;;;;0.50;0.40;;;21.30;99.90;;;;;;5078228;28;20522;-79
2022/08/31 07:01:31;;;;;;;1.20;1.10;;;22.70;99.90;;;;;;5078706;28;20468;-79
2022/08/31 07:03:59;;;;;;;0.50;0.47;;;24.00;99.90;;;;;;5077972;28;20531;-79
2022/08/31 07:06:28;;;;;;;0.50;0.30;;;25.00;99.90;;;;;;5079331;28;20439;-78
2022/08/31 07:08:58;;;;;;;0.50;0.30;;;26.10;97.00;;;;;;5078740;28;20436;-79
2022/08/31 07:11:28;;;;;;;0.50;0.30;;;26.80;91.10;;;;;;5076429;28;20428;-78
2022/08/31 07:13:56;;;;;;;1.47;1.37;;;27.60;88.40;;;;;;5072243;28;21027;-76
2022/08/31 07:16:24;;;;;;;0.50;0.30;;;27.80;80.90;;;;;;5071923;28;20475;-79
2022/08/31 07:18:53;;;;;;;0.50;0.30;;;28.40;78.60;;;;;;5072570;28;20809;-78
2022/08/31 07:21:22;;;;;;;0.50;0.30;;;28.90;74.00;;;;;;5072512;28;20444;-77
2022/08/31 07:23:49;;;;;;;0.50;0.30;;;28.90;72.70;;;;;;5072288;28;20468;-78
2022/08/31 07:26:24;;;;;;;0.50;0.40;;;28.80;72.70;;;;;;5072124;28;20495;-78
2022/08/31 07:28:52;;;;;;;0.50;0.30;;;28.60;72.10;;;;;;5071901;28;20485;-79
2022/08/31 07:31:21;;;;;;;0.50;0.30;;;28.90;73.00;;;;;;5072155;28;20466;-77
2022/08/31 07:33:49;;;;;;;0.50;0.30;;;29.20;69.00;;;;;;5071688;28;20464;-79
2022/08/31 07:36:16;;;;;;;0.50;0.30;;;29.00;70.10;;;;;;5071006;28;21021;-78
2022/08/31 07:44:14;;;;;;;0.50;0.30;;;27.30;74.70;;;;;;5071334;28;20940;-79
2022/08/31 07:46:41;;;;;;;0.50;0.30;;;27.30;74.90;;;;;;5071764;28;20432;-78
2022/08/31 07:49:12;;;;;;;0.50;0.30;;;28.00;71.90;;;;;;5071873;28;20519;-79
2022/08/31 07:51:42;;;;;;;0.50;0.30;;;28.90;71.80;;;;;;5071835;28;20425;-78
2022/08/31 07:54:09;;;;;;;0.50;0.30;;;28.80;69.10;;;;;;5070773;28;20609;-78
2022/08/31 07:56:38;;;;;;;0.50;0.30;;;29.30;69.30;;;;;;5070911;28;20472;-76
2022/08/31 07:59:06;;;;;;;0.50;0.30;;;29.50;66.50;;;;;;5071400;28;20447;-77
2022/08/31 08:01:33;;;;;;;0.50;0.30;;;28.60;66.90;;;;;;5071192;28;20436;-77
2022/08/31 08:04:00;;;;;;;0.50;0.30;;;28.10;69.40;;;;;;5070522;28;20464;-78
2022/08/31 08:06:28;;;;;;;0.50;0.30;;;28.40;69.50;;;;;;5070674;28;20440;-78
2022/08/31 08:09:06;;;;;;;0.50;0.30;;;27.90;70.90;;;;;;5071263;28;20543;-77
2022/08/31 08:11:34;;;;;;;0.50;0.30;;;28.10;70.90;;;;;;5071341;28;20426;-77
2022/08/31 08:14:02;;;;;;;0.50;0.30;;;27.40;71.40;;;;;;5070518;28;20472;-76
2022/08/31 08:16:29;;;;;;;2.23;0.90;;;27.80;73.00;;;;;;5070586;28;20475;-77
2022/08/31 08:18:56;;;;;;;0.50;0.30;;;27.40;72.10;;;;;;5070898;28;20440;-77
2022/08/31 08:21:23;;;;;;;0.50;0.30;;;27.00;72.10;;;;;;5071199;28;20455;-77
2022/08/31 08:23:50;;;;;;;0.50;0.40;;;27.30;74.60;;;;;;5071049;28;20456;-77
2022/08/31 08:26:17;;;;;;;0.50;0.30;;;27.70;73.20;;;;;;5070643;28;20945;-77
2022/08/31 08:28:43;;;;;;;0.63;0.63;;;29.00;69.60;;;;;;5070525;28;20436;-77
2022/08/31 08:31:16;;;;;;;0.50;0.30;;;30.00;67.20;;;;;;5071083;28;20440;-77
2022/08/31 08:33:43;;;;;;;0.67;0.50;;;30.50;65.10;;;;;;5070617;28;20440;-77
2022/08/31 08:36:11;;;;;;;0.50;0.30;;;30.40;63.20;;;;;;5069783;28;20476;-75
2022/08/31 08:38:42;;;;;;;0.50;0.30;;;30.90;64.40;;;;;;5070478;28;20530;-77
2022/08/31 08:41:13;;;;;;;0.50;0.30;;;30.60;61.80;;;;;;5070401;28;20440;-76
2022/08/31 08:43:42;;;;;;;0.50;0.40;;;30.10;63.70;;;;;;5070412;28;20962;-77
2022/08/31 08:46:13;;;;;;;0.50;0.30;;;29.80;65.10;;;;;;5070082;28;20438;-73
2022/08/31 08:48:43;;;;;;;0.50;0.40;;;29.70;64.80;;;;;;5070360;28;20547;-77
2022/08/31 08:51:15;;;;;;;0.50;0.40;;;29.80;64.50;;;;;;5070536;28;20674;-77
2022/08/31 08:53:43;;;;;;;0.50;0.40;;;29.60;65.70;;;;;;5070514;28;20557;-77
2022/08/31 08:56:11;;;;;;;0.50;0.30;;;30.30;66.10;;;;;;5070077;28;20837;-75
2022/08/31 08:58:41;;;;;;;0.50;0.30;;;31.20;64.00;;;;;;5070480;28;20497;-77
2022/08/31 09:01:10;;;;;;;0.50;0.30;;;31.80;61.90;;;;;;5070131;28;20439;-76
2022/08/31 09:03:56;;;;;;;0.50;0.40;;;32.40;59.80;;;;;;5070557;28;20459;-78
2022/08/31 09:06:35;;;;;;;0.50;0.40;;;33.00;58.90;;;;;;5070466;28;20424;-77
2022/08/31 09:09:33;;;;;;;0.50;0.30;;;33.40;58.60;;;;;;5071068;28;20443;-77
2022/08/31 09:12:21;;;;;;;0.50;0.30;;;33.50;57.30;;;;;;5036267;28;20494;-77
2022/08/31 09:15:10;;;;;;;0.50;0.30;;;33.50;56.60;;;;;;5069477;28;20471;-77
2022/08/31 09:17:44;;;;;;;0.50;0.30;;;33.80;57.00;;;;;;5070453;28;20442;-77
2022/08/31 09:20:15;;;;;;;0.50;0.30;;;34.10;56.90;;;;;;5070528;28;20801;-78
2022/08/31 09:22:47;;;;;;;0.50;0.30;;;33.60;56.50;;;;;;5070524;28;20451;-77
2022/08/31 09:25:15;;;;;;;0.80;0.80;;;33.40;56.50;;;;;;5070336;28;20474;-77
2022/08/31 09:27:45;;;;;;;0.50;0.30;;;33.30;56.50;;;;;;5070193;28;20436;-77
2022/08/31 09:30:17;;;;;;;0.50;0.40;;;33.10;56.10;;;;;;5070468;28;20440;-77
2022/08/31 09:32:56;;;;;;;0.50;0.30;;;32.90;56.50;;;;;;5070476;28;20440;-77
2022/08/31 09:35:32;;;;;;;0.60;0.47;;;32.30;57.10;;;;;;5069587;28;20483;-77
2022/08/31 09:38:01;;;;;;;0.50;0.30;;;31.60;57.60;;;;;;5071145;28;20416;-78
2022/08/31 09:40:38;;;;;;;0.60;0.40;;;31.40;59.00;;;;;;5070278;28;20451;-77
2022/08/31 09:43:09;;;;;;;0.50;0.30;;;31.30;59.40;;;;;;5070357;28;20535;-76
2022/08/31 09:45:38;;;;;;;0.50;0.30;;;30.80;59.10;;;;;;5070229;28;20901;-77
2022/08/31 09:48:06;;;;;;;0.50;0.40;;;30.40;60.50;;;;;;5070205;28;20515;-77
2022/08/31 09:50:40;;;;;;;0.50;0.30;;;29.40;62.40;;;;;;5069970;28;20440;-77
2022/08/31 09:56:13;;;;;;;0.50;0.30;;;31.00;62.60;;;;;;5073127;28;20784;-79
2022/08/31 09:58:45;;;;;;;0.50;0.30;;;32.60;61.80;;;;;;5074075;28;20455;-78
2022/08/31 10:01:18;;;;;;;0.50;0.40;;;33.50;57.70;;;;;;5074131;28;20464;-80
2022/08/31 10:03:47;;;;;;;4.00;1.00;;;34.00;56.80;;;;;;5075263;28;20580;-77
2022/08/31 10:06:45;;;;;;;0.50;0.40;;;33.60;56.30;;;;;;5075250;28;20439;-77
2022/08/31 10:09:19;;;;;;;0.50;0.30;;;33.60;56.50;;;;;;5074965;28;20890;-77
2022/08/31 10:11:48;;;;;;;0.50;0.30;;;33.80;57.20;;;;;;5073502;28;20434;-77
2022/08/31 10:14:26;;;;;;;0.50;0.30;;;34.40;55.10;;;;;;5072995;28;20457;-77
2022/08/31 10:17:01;;;;;;;2.97;2.70;;;34.50;55.50;;;;;;5073564;28;20472;-76
2022/08/31 10:19:53;;;;;;;0.50;0.30;;;34.60;56.00;;;;;;5073643;28;20550;-77
2022/08/31 10:22:31;;;;;;;0.70;0.50;;;34.40;55.70;;;;;;5073855;28;20850;-72
2022/08/31 10:25:17;;;;;;;0.50;0.40;;;33.20;56.00;;;;;;5073498;28;20498;-76
2022/08/31 10:27:47;;;;;;;0.50;0.40;;;32.50;57.20;;;;;;5073671;28;20444;-77
2022/08/31 10:30:27;;;;;;;0.50;0.30;;;31.70;57.60;;;;;;5073612;28;20866;-75
2022/08/31 10:33:03;;;;;;;0.50;0.30;;;31.20;58.90;;;;;;5073365;28;20439;-77
2022/08/31 10:35:36;;;;;;;0.50;0.30;;;31.10;61.40;;;;;;5073391;28;20546;-77
2022/08/31 10:38:20;;;;;;;1.40;1.30;;;31.80;60.50;;;;;;5075231;28;20916;-79
2022/08/31 10:40:50;;;;;;;0.50;0.30;;;32.50;57.60;;;;;;5074519;28;20779;-76
2022/08/31 10:43:20;;;;;;;0.50;0.30;;;32.80;57.90;;;;;;5074293;28;20440;-75
2022/08/31 10:45:51;;;;;;;0.50;0.30;;;33.30;58.40;;;;;;5073149;28;20455;-79
2022/08/31 10:48:19;;;;;;;0.50;0.40;;;34.10;56.70;;;;;;5075683;28;20519;-78
2022/08/31 10:50:52;;;;;;;0.60;0.40;;;34.70;56.40;;;;;;5075469;28;20440;-79
2022/08/31 10:53:32;;;;;;;0.50;0.30;;;35.20;53.90;;;;;;5074771;28;20432;-79
2022/08/31 10:56:13;;;;;;;1.13;0.50;;;35.10;53.90;;;;;;5074364;28;20533;-79
2022/08/31 10:58:55;;;;;;;0.50;0.30;;;35.10;54.30;;;;;;5075133;28;20525;-79
2022/08/31 11:01:32;;;;;;;0.50;0.37;;;34.70;54.50;;;;;;5073590;28;20538;-75
2022/08/31 11:04:34;;;;;;;0.50;0.30;;;34.90;55.20;;;;;;5072530;28;20773;-77
2022/08/31 11:07:11;;;;;;;0.60;0.40;;;36.00;55.50;;;;;;5047021;28;20444;-77
2022/08/31 11:09:45;;;;;;;0.40;0.30;;;37.30;52.00;;;;;;5072860;28;20514;-77
2022/08/31 11:12:17;;;;;;;0.40;0.30;;;37.40;51.50;;;;;;5072763;28;20416;-76
2022/08/31 11:15:09;;;;;;;0.50;0.30;;;37.00;50.50;;;;;;5072194;28;20460;-78
2022/08/31 11:17:54;;;;;;;0.77;0.37;;;36.10;52.00;;;;;;5072496;28;20582;-77
2022/08/31 11:20:39;;;;;;;0.50;0.40;;;35.50;51.70;;;;;;5072901;28;20460;-76
2022/08/31 11:23:39;;;;;;;0.50;0.30;;;35.30;52.80;;;;;;5072182;28;20452;-75
2022/08/31 11:26:54;;;;;;;0.50;0.40;;;34.80;53.10;;;;;;5073018;28;20479;-78
2022/08/31 11:29:35;;;;;;;0.50;0.30;;;35.00;53.50;;;;;;5057743;28;20452;-79
2022/08/31 11:32:11;;;;;;;0.50;0.30;;;35.30;53.00;;;;;;5073556;28;20499;-79
2022/08/31 11:34:49;;;;;;;0.50;0.30;;;34.50;52.90;;;;;;5072476;28;20496;-78
2022/08/31 11:37:51;;;;;;;0.50;0.30;;;32.90;55.40;;;;;;5072480;28;20470;-78
2022/08/31 11:40:51;;;;;;;0.73;0.47;;;32.10;56.70;;;;;;5073525;28;20420;-79
2022/08/31 11:43:42;;;;;;;0.67;0.60;;;30.90;57.90;;;;;;5072850;28;20432;-80
2022/08/31 11:46:42;;;;;;;1.37;1.37;;;30.30;59.60;;;;;;5072117;28;20783;-79
2022/08/31 11:49:10;;;;;;;0.50;0.30;;;30.40;62.20;;;;;;5073225;28;20440;-78
2022/08/31 11:51:44;;;;;;;0.83;0.83;;;31.40;59.00;;;;;;5073333;28;20817;-79
2022/08/31 11:54:14;;;;;;;0.50;0.30;;;32.80;58.60;;;;;;5072374;28;20460;-76
2022/08/31 11:56:44;;;;;;;0.50;0.37;;;33.80;56.50;;;;;;5071354;28;20475;-75
2022/08/31 11:59:25;;;;;;;0.80;0.60;;;34.00;54.60;;;;;;5071714;28;20539;-77
2022/08/31 12:01:55;;;;;;;0.60;0.50;;;33.50;55.00;;;;;;5071905;28;20456;-77
2022/08/31 12:04:59;;;;;;;0.97;0.70;;;33.10;55.70;;;;;;5071199;28;20554;-77
2022/08/31 12:07:29;;;;;;;0.50;0.30;;;32.70;56.40;;;;;;5069782;28;20515;-77
2022/08/31 12:10:26;;;;;;;0.80;0.77;;;32.20;56.30;;;;;;5072374;28;20997;-77
2022/08/31 12:13:17;;;;;;;0.67;0.67;;;31.30;56.70;;;;;;5065161;28;20458;-77
2022/08/31 12:16:05;;;;;;;0.50;0.30;;;30.20;58.70;;;;;;5061561;28;20452;-77
2022/08/31 12:18:47;;;;;;;0.50;0.30;;;29.70;60.80;;;;;;5070889;28;20511;-78
2022/08/31 12:24:22;;;;;;;5.67;3.43;;;29.10;64.20;;;;;;5071122;28;20430;-74
2022/08/31 12:27:04;;;;;;;2.30;1.63;;;30.30;62.50;;;;;;5071301;28;20439;-77
2022/08/31 12:29:32;;;;;;;0.50;0.30;;;30.80;60.50;;;;;;5071199;28;20425;-77
2022/08/31 12:32:09;;;;;;;0.53;0.40;;;30.70;59.90;;;;;;5072041;28;20432;-77
2022/08/31 12:34:40;;;;;;;0.50;0.30;;;30.10;60.80;;;;;;5070604;28;21032;-77
2022/08/31 12:37:22;;;;;;;0.60;0.40;;;29.70;62.40;;;;;;5070528;28;20468;-77
2022/08/31 12:39:49;;;;;;;0.60;0.53;;;29.20;62.70;;;;;;5071143;28;20480;-77
2022/08/31 12:42:16;;;;;;;0.50;0.30;;;28.80;63.40;;;;;;5071096;28;20455;-77
2022/08/31 12:44:49;;;;;;;0.50;0.40;;;28.50;65.40;;;;;;5070670;28;20456;-77
2022/08/31 12:47:24;;;;;;;0.90;0.90;;;28.40;66.00;;;;;;5070909;28;20440;-76
2022/08/31 12:50:08;;;;;;;0.50;0.30;;;28.70;66.10;;;;;;5071409;28;20904;-77
2022/08/31 12:52:51;;;;;;;0.50;0.30;;;29.50;65.90;;;;;;5071100;28;20442;-75
2022/08/31 12:55:33;;;;;;;0.50;0.30;;;31.00;61.40;;;;;;5070856;28;20889;-77
2022/08/31 12:58:12;;;;;;;0.60;0.40;;;32.30;58.90;;;;;;5070557;28;20483;-77
2022/08/31 13:00:42;;;;;;;0.50;0.30;;;33.20;57.70;;;;;;5070605;28;20594;-77
2022/08/31 13:03:17;;;;;;;0.50;0.30;;;33.90;56.60;;;;;;5070343;28;20455;-77
2022/08/31 13:06:02;;;;;;;3.80;1.37;;;34.40;55.40;;;;;;5070480;28;20428;-77
2022/08/31 13:08:36;;;;;;;0.50;0.30;;;34.10;54.40;;;;;;5070693;28;20447;-77
2022/08/31 13:11:17;;;;;;;0.50;0.30;;;33.80;54.30;;;;;;5070592;28;20428;-77
2022/08/31 13:13:44;;;;;;;0.50;0.40;;;33.10;55.20;;;;;;5069987;28;20991;-76
2022/08/31 13:16:12;;;;;;;0.60;0.50;;;32.50;56.70;;;;;;5070639;28;20528;-72
2022/08/31 13:18:39;;;;;;;0.50;0.40;;;32.50;56.40;;;;;;5070491;28;20443;-78
2022/08/31 13:21:09;;;;;;;0.50;0.30;;;33.00;55.90;;;;;;5070675;28;20494;-77
2022/08/31 13:23:38;;;;;;;0.50;0.30;;;32.80;56.00;;;;;;5070754;28;20456;-77